createdAt,value
2023-11-26T00:01:28.392Z,99529.00
2023-11-26T00:03:56.514Z,99528.72
2023-11-26T00:06:24.002Z,99532.22
2023-11-26T00:08:51.300Z,99537.06
2023-11-26T00:11:19.912Z,99534.22
2023-11-26T00:13:46.987Z,99530.88
2023-11-26T00:16:14.625Z,99537.56
2023-11-26T00:18:41.859Z,99544.41
2023-11-26T00:21:09.066Z,99545.75
2023-11-26T00:23:36.187Z,99549.72
2023-11-26T00:26:04.133Z,99556.91
2023-11-26T00:28:33.150Z,99562.41
2023-11-26T00:31:02.771Z,99566.28
2023-11-26T00:33:30.147Z,99560.44
2023-11-26T00:35:57.178Z,99569.47
2023-11-26T00:38:24.844Z,99574.63
2023-11-26T00:40:52.202Z,99572.97
2023-11-26T00:43:21.212Z,99581.16
2023-11-26T00:45:50.891Z,99568.16
2023-11-26T00:48:18.474Z,99574.81
2023-11-26T00:50:45.912Z,99580.03
2023-11-26T00:53:15.880Z,99573.53
2023-11-26T00:55:43.292Z,99575.56
2023-11-26T00:58:10.557Z,99576.53
2023-11-26T01:00:37.904Z,99584.72
2023-11-26T01:03:08.026Z,99582.03
2023-11-26T01:05:37.081Z,99597.25
2023-11-26T01:08:05.565Z,99592.91
2023-11-26T01:10:35.426Z,99601.75
2023-11-26T01:13:02.888Z,99606.91
2023-11-26T01:15:29.838Z,99606.06
2023-11-26T01:17:57.681Z,99609.94
2023-11-26T01:20:26.851Z,99613.59
2023-11-26T01:22:55.550Z,99619.28
2023-11-26T01:25:22.958Z,99619.47
2023-11-26T01:27:49.903Z,99618.31
2023-11-26T01:30:18.942Z,99627.16
2023-11-26T01:32:46.225Z,99632.00
2023-11-26T01:35:13.339Z,99635.31
2023-11-26T01:37:41.982Z,99640.13
2023-11-26T01:40:10.601Z,99642.81
2023-11-26T01:42:37.978Z,99635.50
2023-11-26T01:45:05.963Z,99635.34
2023-11-26T01:47:35.628Z,99628.31
2023-11-26T01:50:03.765Z,99634.66
2023-11-26T01:52:31.149Z,99632.66
2023-11-26T01:55:00.556Z,99640.31
2023-11-26T01:57:28.137Z,99649.47
2023-11-26T01:59:55.327Z,99643.84
2023-11-26T02:02:23.900Z,99648.50
2023-11-26T02:04:51.907Z,99641.81
2023-11-26T02:07:18.972Z,99646.34
2023-11-26T02:09:45.986Z,99648.13
2023-11-26T02:12:15.011Z,99653.97
2023-11-26T02:14:41.903Z,99644.94
2023-11-26T02:17:09.171Z,99648.28
2023-11-26T02:19:40.266Z,99649.78
2023-11-26T02:22:07.723Z,99653.97
2023-11-26T02:24:44.961Z,99648.81
2023-11-26T02:27:14.564Z,99654.66
2023-11-26T02:29:42.986Z,99645.66
2023-11-26T02:32:10.837Z,99650.31
2023-11-26T02:34:38.470Z,99652.16
2023-11-26T02:37:07.357Z,99653.66
2023-11-26T02:39:34.504Z,99659.00
2023-11-26T02:42:05.596Z,99665.47
2023-11-26T02:44:34.034Z,99672.47
2023-11-26T02:47:01.123Z,99667.28
2023-11-26T02:49:29.995Z,99667.97
2023-11-26T02:51:56.951Z,99667.09
2023-11-26T02:54:24.597Z,99673.59
2023-11-26T02:56:52.128Z,99676.28
2023-11-26T02:59:20.680Z,99677.13
2023-11-26T03:01:56.839Z,99673.47
2023-11-26T03:04:24.071Z,99676.97
2023-11-26T03:06:52.487Z,99669.63
2023-11-26T03:09:19.416Z,99667.00
2023-11-26T03:11:48.285Z,99664.00
2023-11-26T03:14:18.113Z,99667.47
2023-11-26T03:16:46.580Z,99664.56
2023-11-26T03:19:14.028Z,99681.16
2023-11-26T03:21:43.934Z,99683.81
2023-11-26T03:24:11.709Z,99692.28
2023-11-26T03:26:38.582Z,99680.50
2023-11-26T03:29:05.954Z,99680.72
2023-11-26T03:31:33.516Z,99681.59
2023-11-26T03:34:02.704Z,99677.63
2023-11-26T03:36:31.389Z,99682.81
2023-11-26T03:38:59.937Z,99684.16
2023-11-26T03:41:27.619Z,99685.84
2023-11-26T03:43:56.812Z,99679.00
2023-11-26T03:46:26.997Z,99678.84
2023-11-26T03:48:54.240Z,99683.50
2023-11-26T03:51:23.968Z,99682.69
2023-11-26T03:53:51.292Z,99687.03
2023-11-26T03:56:18.571Z,99678.19
2023-11-26T03:58:45.618Z,99695.19
2023-11-26T04:01:15.645Z,99697.19
2023-11-26T04:03:45.344Z,99696.53
2023-11-26T04:06:16.712Z,99697.69
2023-11-26T04:08:45.096Z,99695.34
2023-11-26T04:11:12.273Z,99698.38
2023-11-26T04:13:39.445Z,99700.69
2023-11-26T04:16:07.719Z,99701.34
2023-11-26T04:18:35.508Z,99694.34
2023-11-26T04:21:03.269Z,99704.53
2023-11-26T04:23:30.407Z,99701.88
2023-11-26T04:25:58.969Z,99702.69
2023-11-26T04:28:26.020Z,99705.38
2023-11-26T04:30:53.418Z,99700.00
2023-11-26T04:33:20.783Z,99706.84
2023-11-26T04:35:48.699Z,99709.31
2023-11-26T04:38:16.021Z,99709.81
2023-11-26T04:40:43.417Z,99712.84
2023-11-26T04:43:11.985Z,99712.06
2023-11-26T04:45:39.830Z,99724.25
2023-11-26T04:48:08.481Z,99725.47
2023-11-26T04:50:35.661Z,99722.63
2023-11-26T04:53:02.878Z,99729.44
2023-11-26T04:55:30.122Z,99723.13
2023-11-26T04:57:57.392Z,99725.72
2023-11-26T05:00:26.954Z,99727.41
2023-11-26T05:02:54.532Z,99729.28
2023-11-26T05:05:22.009Z,99732.13
2023-11-26T05:07:48.923Z,99735.47
2023-11-26T05:10:16.603Z,99747.78
2023-11-26T05:12:43.666Z,99747.44
2023-11-26T05:15:11.142Z,99747.47
2023-11-26T05:17:40.203Z,99753.38
2023-11-26T05:20:15.694Z,99745.00
2023-11-26T05:22:48.367Z,99747.00
2023-11-26T05:25:16.012Z,99759.19
2023-11-26T05:27:44.090Z,99758.91
2023-11-26T05:30:11.578Z,99760.38
2023-11-26T05:32:41.029Z,99761.91
2023-11-26T05:35:10.935Z,99764.44
2023-11-26T05:37:37.941Z,99772.78
2023-11-26T05:40:09.954Z,99763.91
2023-11-26T05:42:38.555Z,99766.09
2023-11-26T05:45:07.083Z,99767.63
2023-11-26T05:47:36.712Z,99767.47
2023-11-26T05:50:08.498Z,99770.78
2023-11-26T05:52:36.484Z,99771.78
2023-11-26T05:55:04.380Z,99767.59
2023-11-26T05:57:31.579Z,99769.97
2023-11-26T05:59:59.225Z,99769.13
2023-11-26T06:02:26.781Z,99773.13
2023-11-26T06:04:54.124Z,99779.44
2023-11-26T06:07:23.981Z,99778.44
2023-11-26T06:09:50.988Z,99781.13
2023-11-26T06:12:18.549Z,99781.44
2023-11-26T06:14:47.405Z,99785.47
2023-11-26T06:17:14.615Z,99776.09
2023-11-26T06:19:41.857Z,99781.94
2023-11-26T06:22:09.292Z,99789.63
2023-11-26T06:24:38.188Z,99808.81
2023-11-26T06:27:06.487Z,99823.69
2023-11-26T06:29:33.547Z,99818.34
2023-11-26T06:32:00.904Z,99817.81
2023-11-26T06:34:27.990Z,99809.63
2023-11-26T06:36:54.853Z,99813.16
2023-11-26T06:39:22.895Z,99807.47
2023-11-26T06:41:51.833Z,99802.47
2023-11-26T06:44:19.176Z,99811.81
2023-11-26T06:46:46.439Z,99820.50
2023-11-26T06:49:14.032Z,99819.50
2023-11-26T06:51:41.278Z,99818.97
2023-11-26T06:54:09.597Z,99826.53
2023-11-26T06:56:36.809Z,99820.84
2023-11-26T06:59:05.569Z,99828.22
2023-11-26T07:01:32.569Z,99828.16
2023-11-26T07:03:59.760Z,99828.78
2023-11-26T07:06:28.483Z,99834.16
2023-11-26T07:08:55.833Z,99837.50
2023-11-26T07:11:23.160Z,99835.50
2023-11-26T07:13:52.148Z,99836.19
2023-11-26T07:16:22.720Z,99837.16
2023-11-26T07:18:50.351Z,99843.81
2023-11-26T07:21:17.406Z,99837.28
2023-11-26T07:23:44.645Z,99845.25
2023-11-26T07:26:11.944Z,99850.44
2023-11-26T07:28:40.413Z,99847.63
2023-11-26T07:31:13.714Z,99848.13
2023-11-26T07:33:42.491Z,99857.97
2023-11-26T07:36:14.423Z,99848.16
2023-11-26T07:38:43.098Z,99852.84
2023-11-26T07:41:10.916Z,99857.81
2023-11-26T07:43:47.546Z,99853.72
2023-11-26T07:46:15.631Z,99860.19
2023-11-26T07:48:48.614Z,99867.94
2023-11-26T07:51:19.351Z,99860.41
2023-11-26T07:53:46.610Z,99860.38
2023-11-26T07:56:13.889Z,99859.38
2023-11-26T07:58:43.056Z,99866.53
2023-11-26T08:01:12.664Z,99868.41
2023-11-26T08:03:39.813Z,99864.59
2023-11-26T08:06:13.433Z,99871.28
2023-11-26T08:08:43.015Z,99870.44
2023-11-26T08:11:12.829Z,99885.13
2023-11-26T08:13:40.495Z,99883.66
2023-11-26T08:16:09.608Z,99880.28
2023-11-26T08:18:37.351Z,99887.09
2023-11-26T08:21:04.812Z,99879.22
2023-11-26T08:23:36.277Z,99878.56
2023-11-26T08:26:13.417Z,99869.91
2023-11-26T08:28:43.466Z,99872.94
2023-11-26T08:31:10.801Z,99877.47
2023-11-26T08:33:37.830Z,99870.94
2023-11-26T08:36:05.860Z,99878.78
2023-11-26T08:38:35.535Z,99877.44
2023-11-26T08:41:03.530Z,99873.56
2023-11-26T08:43:33.019Z,99881.88
2023-11-26T08:45:59.958Z,99885.91
2023-11-26T08:48:26.922Z,99896.06
2023-11-26T08:50:53.878Z,99889.84
2023-11-26T08:53:21.774Z,99895.13
2023-11-26T08:55:50.113Z,99887.06
2023-11-26T08:58:17.085Z,99893.72
2023-11-26T09:00:44.153Z,99883.44
2023-11-26T09:03:11.291Z,99888.25
2023-11-26T09:05:39.273Z,99895.69
2023-11-26T09:08:08.074Z,99898.78
2023-11-26T09:10:35.598Z,99905.94
2023-11-26T09:13:03.905Z,99898.91
2023-11-26T09:15:31.216Z,99899.00
2023-11-26T09:18:00.982Z,99904.00
2023-11-26T09:20:28.571Z,99910.00
2023-11-26T09:22:56.001Z,99913.78
2023-11-26T09:25:22.895Z,99902.88
2023-11-26T09:27:50.243Z,99902.41
2023-11-26T09:30:20.103Z,99900.88
2023-11-26T09:32:49.037Z,99906.81
2023-11-26T09:35:16.163Z,99906.91
2023-11-26T09:37:43.239Z,99905.19
2023-11-26T09:40:11.633Z,99904.38
2023-11-26T09:42:42.107Z,99903.84
2023-11-26T09:45:11.944Z,99902.94
2023-11-26T09:47:40.625Z,99904.44
2023-11-26T09:50:10.419Z,99913.13
2023-11-26T09:52:38.179Z,99901.59
2023-11-26T09:55:08.148Z,99900.19
2023-11-26T09:57:38.427Z,99895.84
2023-11-26T10:00:07.339Z,99899.53
2023-11-26T10:02:34.557Z,99892.50
2023-11-26T10:05:04.397Z,99897.81
2023-11-26T10:07:37.089Z,99889.66
2023-11-26T10:10:09.379Z,99887.16
2023-11-26T10:12:52.184Z,99878.22
2023-11-26T10:15:20.969Z,99868.91
2023-11-26T10:18:02.553Z,99867.97
2023-11-26T10:20:31.798Z,99869.38
2023-11-26T10:22:59.571Z,99858.75
2023-11-26T10:25:28.903Z,99858.38
2023-11-26T10:27:56.561Z,99855.31
2023-11-26T10:30:28.012Z,99857.94
2023-11-26T10:33:13.716Z,99849.28
2023-11-26T10:35:48.543Z,99852.13
2023-11-26T10:38:16.905Z,99847.38
2023-11-26T10:40:44.099Z,99843.03
2023-11-26T10:43:13.637Z,99837.56
2023-11-26T10:45:42.302Z,99836.94
2023-11-26T10:48:15.268Z,99836.56
2023-11-26T10:50:58.796Z,99833.94
2023-11-26T10:53:39.570Z,99840.31
2023-11-26T10:56:13.939Z,99836.25
2023-11-26T10:58:49.450Z,99839.31
2023-11-26T11:01:17.652Z,99834.69
2023-11-26T11:03:44.985Z,99833.72
2023-11-26T11:06:15.883Z,99827.16
2023-11-26T11:08:43.928Z,99831.88
2023-11-26T11:11:25.343Z,99829.13
2023-11-26T11:13:54.156Z,99827.94
2023-11-26T11:16:21.856Z,99825.44
2023-11-26T11:18:48.805Z,99826.78
2023-11-26T11:21:18.296Z,99827.84
2023-11-26T11:23:47.329Z,99830.09
2023-11-26T11:26:16.644Z,99824.13
2023-11-26T11:28:47.660Z,99830.94
2023-11-26T11:31:16.300Z,99827.84
2023-11-26T11:34:20.225Z,99824.28
2023-11-26T11:36:57.696Z,99827.22
2023-11-26T11:39:42.235Z,99819.22
2023-11-26T11:42:15.014Z,99820.97
2023-11-26T11:44:45.267Z,99827.66
2023-11-26T11:47:14.144Z,99819.44
2023-11-26T11:50:08.218Z,99816.88
2023-11-26T11:52:37.814Z,99817.38
2023-11-26T11:55:56.335Z,99812.34
2023-11-26T11:58:23.528Z,99818.91
2023-11-26T12:00:58.441Z,99809.59
2023-11-26T12:03:26.558Z,99820.06
2023-11-26T12:05:53.745Z,99811.28
2023-11-26T12:08:22.099Z,99814.94
2023-11-26T12:10:50.440Z,99814.72
2023-11-26T12:13:17.666Z,99812.75
2023-11-26T12:15:56.554Z,99801.34
2023-11-26T12:18:23.793Z,99799.28
2023-11-26T12:20:51.045Z,99805.63
2023-11-26T12:23:34.701Z,99800.41
2023-11-26T12:26:03.164Z,99803.16
2023-11-26T12:28:41.449Z,99790.13
2023-11-26T12:31:08.923Z,99787.22
2023-11-26T12:33:36.193Z,99784.25
2023-11-26T12:36:04.351Z,99778.84
2023-11-26T12:38:32.919Z,99779.25
2023-11-26T12:41:00.220Z,99778.78
2023-11-26T12:43:29.477Z,99784.13
2023-11-26T12:46:09.112Z,99788.31
2023-11-26T12:48:36.037Z,99794.69
2023-11-26T12:51:05.039Z,99795.97
2023-11-26T12:53:34.873Z,99791.13
2023-11-26T12:56:01.857Z,99795.75
2023-11-26T12:58:29.005Z,99793.41
2023-11-26T13:00:57.980Z,99787.84
2023-11-26T13:03:25.311Z,99783.25
2023-11-26T13:05:53.728Z,99783.94
2023-11-26T13:08:23.816Z,99779.56
2023-11-26T13:10:57.160Z,99768.13
2023-11-26T13:13:28.230Z,99772.56
2023-11-26T13:15:57.005Z,99772.97
2023-11-26T13:18:24.634Z,99764.41
2023-11-26T13:20:51.787Z,99763.94
2023-11-26T13:23:20.431Z,99756.88
2023-11-26T13:25:48.023Z,99752.66
2023-11-26T13:28:19.726Z,99763.84
2023-11-26T13:30:47.324Z,99758.03
2023-11-26T13:33:16.324Z,99749.25
2023-11-26T13:35:43.656Z,99748.41
2023-11-26T13:38:15.273Z,99754.88
2023-11-26T13:40:45.166Z,99755.84
2023-11-26T13:43:13.947Z,99756.03
2023-11-26T13:45:42.455Z,99755.94
2023-11-26T13:48:12.018Z,99760.13
2023-11-26T13:50:40.500Z,99757.66
2023-11-26T13:53:08.333Z,99756.00
2023-11-26T13:55:36.182Z,99763.00
2023-11-26T13:58:04.384Z,99754.88
2023-11-26T14:00:32.308Z,99755.72
2023-11-26T14:03:01.004Z,99755.13
2023-11-26T14:05:30.405Z,99760.84
2023-11-26T14:07:59.384Z,99761.38
2023-11-26T14:10:26.560Z,99759.75
2023-11-26T14:12:55.314Z,99762.06
2023-11-26T14:15:22.664Z,99757.53
2023-11-26T14:17:49.637Z,99745.97
2023-11-26T14:20:20.064Z,99757.50
2023-11-26T14:22:49.627Z,99758.78
2023-11-26T14:25:18.327Z,99764.97
2023-11-26T14:27:47.556Z,99764.16
2023-11-26T14:30:16.659Z,99769.09
2023-11-26T14:32:46.636Z,99770.50
2023-11-26T14:35:14.548Z,99763.88
2023-11-26T14:37:43.104Z,99765.03
2023-11-26T14:40:11.027Z,99773.84
2023-11-26T14:42:38.526Z,99766.91
2023-11-26T14:45:06.039Z,99770.19
2023-11-26T14:47:33.612Z,99766.09
2023-11-26T14:50:00.944Z,99762.56
2023-11-26T14:52:28.183Z,99765.69
2023-11-26T14:54:56.817Z,99762.38
2023-11-26T14:57:24.002Z,99763.41
2023-11-26T14:59:50.955Z,99762.38
2023-11-26T15:02:19.595Z,99759.63
2023-11-26T15:04:47.394Z,99764.19
2023-11-26T15:07:15.058Z,99761.81
2023-11-26T15:09:42.448Z,99764.81
2023-11-26T15:12:11.910Z,99774.63
2023-11-26T15:14:39.073Z,99769.63
2023-11-26T15:17:06.846Z,99769.25
2023-11-26T15:19:33.881Z,99775.47
2023-11-26T15:22:01.025Z,99771.94
2023-11-26T15:24:28.376Z,99772.22
2023-11-26T15:26:59.459Z,99769.53
2023-11-26T15:29:29.832Z,99766.31
2023-11-26T15:32:00.246Z,99758.25
2023-11-26T15:34:27.385Z,99769.63
2023-11-26T15:36:54.616Z,99755.69
2023-11-26T15:39:21.972Z,99759.22
2023-11-26T15:41:48.844Z,99754.50
2023-11-26T15:44:16.089Z,99756.34
2023-11-26T15:46:45.322Z,99759.41
2023-11-26T15:49:13.225Z,99756.06
2023-11-26T15:51:41.380Z,99759.59
2023-11-26T15:54:08.720Z,99756.53
2023-11-26T15:56:35.710Z,99757.09
2023-11-26T15:59:02.778Z,99758.50
2023-11-26T16:01:30.355Z,99762.84
2023-11-26T16:03:59.039Z,99758.94
2023-11-26T16:06:27.614Z,99761.06
2023-11-26T16:08:55.022Z,99761.72
2023-11-26T16:11:22.098Z,99756.16
2023-11-26T16:13:50.509Z,99755.06
2023-11-26T16:16:17.808Z,99753.94
2023-11-26T16:18:45.162Z,99761.94
2023-11-26T16:21:16.380Z,99754.78
2023-11-26T16:23:44.911Z,99755.06
2023-11-26T16:26:11.930Z,99757.28
2023-11-26T16:28:39.043Z,99756.53
2023-11-26T16:31:08.266Z,99756.72
2023-11-26T16:33:45.466Z,99758.69
2023-11-26T16:36:19.181Z,99754.75
2023-11-26T16:38:46.538Z,99755.00
2023-11-26T16:41:13.729Z,99758.28
2023-11-26T16:43:42.666Z,99756.38
2023-11-26T16:46:12.447Z,99747.94
2023-11-26T16:48:40.819Z,99748.59
2023-11-26T16:51:09.208Z,99740.84
2023-11-26T16:53:38.506Z,99736.84
2023-11-26T16:56:09.302Z,99735.09
2023-11-26T16:58:38.042Z,99737.78
2023-11-26T17:01:12.703Z,99737.78
2023-11-26T17:03:41.072Z,99740.22
2023-11-26T17:06:09.695Z,99729.84
2023-11-26T17:08:38.027Z,99735.28
2023-11-26T17:11:07.420Z,99736.69
2023-11-26T17:13:34.466Z,99732.97
2023-11-26T17:16:01.673Z,99735.56
2023-11-26T17:18:28.777Z,99731.59
2023-11-26T17:20:56.139Z,99746.69
2023-11-26T17:23:23.037Z,99743.06
2023-11-26T17:25:51.641Z,99736.50
2023-11-26T17:28:20.254Z,99741.97
2023-11-26T17:30:50.576Z,99740.38
2023-11-26T17:33:20.375Z,99738.25
2023-11-26T17:35:48.345Z,99743.13
2023-11-26T17:38:16.266Z,99745.72
2023-11-26T17:40:43.255Z,99737.34
2023-11-26T17:43:14.855Z,99745.50
2023-11-26T17:45:42.566Z,99741.44
2023-11-26T17:48:09.692Z,99732.28
2023-11-26T17:50:37.017Z,99726.16
2023-11-26T17:53:10.429Z,99733.38
2023-11-26T17:55:39.835Z,99730.63
2023-11-26T17:58:07.067Z,99726.38
2023-11-26T18:00:36.180Z,99728.56
2023-11-26T18:03:04.412Z,99723.13
2023-11-26T18:05:31.610Z,99735.16
2023-11-26T18:07:58.638Z,99728.31
2023-11-26T18:10:25.965Z,99732.53
2023-11-26T18:12:53.749Z,99732.66
2023-11-26T18:15:20.918Z,99728.28
2023-11-26T18:17:53.249Z,99728.13
2023-11-26T18:20:20.493Z,99727.63
2023-11-26T18:22:47.765Z,99730.63
2023-11-26T18:25:15.137Z,99725.13
2023-11-26T18:27:42.936Z,99726.44
2023-11-26T18:30:12.050Z,99726.53
2023-11-26T18:32:39.193Z,99734.28
2023-11-26T18:35:08.771Z,99727.16
2023-11-26T18:37:38.211Z,99724.84
2023-11-26T18:40:07.194Z,99731.16
2023-11-26T18:42:34.156Z,99729.50
2023-11-26T18:45:01.369Z,99734.19
2023-11-26T18:47:28.936Z,99730.69
2023-11-26T18:49:56.127Z,99723.38
2023-11-26T18:52:24.890Z,99729.66
2023-11-26T18:54:52.367Z,99734.28
2023-11-26T18:57:19.795Z,99740.50
2023-11-26T18:59:47.182Z,99733.00
2023-11-26T19:02:16.938Z,99733.91
2023-11-26T19:04:44.905Z,99728.66
2023-11-26T19:07:14.273Z,99724.84
2023-11-26T19:09:43.324Z,99717.25
2023-11-26T19:12:11.469Z,99719.72
2023-11-26T19:14:38.788Z,99724.75
2023-11-26T19:17:05.857Z,99727.63
2023-11-26T19:19:33.019Z,99733.00
2023-11-26T19:22:00.452Z,99730.84
2023-11-26T19:24:28.435Z,99727.72
2023-11-26T19:26:56.797Z,99738.09
2023-11-26T19:29:23.850Z,99740.22
2023-11-26T19:31:51.865Z,99739.19
2023-11-26T19:34:19.024Z,99728.72
2023-11-26T19:36:47.445Z,99725.28
2023-11-26T19:39:14.583Z,99722.41
2023-11-26T19:41:41.888Z,99729.09
2023-11-26T19:44:10.449Z,99727.31
2023-11-26T19:46:40.864Z,99730.84
2023-11-26T19:49:08.174Z,99736.97
2023-11-26T19:51:35.098Z,99729.00
2023-11-26T19:54:02.295Z,99734.94
2023-11-26T19:56:29.745Z,99736.03
2023-11-26T19:58:56.873Z,99743.50
2023-11-26T20:01:25.523Z,99741.59
2023-11-26T20:03:53.042Z,99736.97
2023-11-26T20:06:22.271Z,99744.53
2023-11-26T20:08:50.643Z,99746.56
2023-11-26T20:11:17.635Z,99746.66
2023-11-26T20:13:44.694Z,99743.97
2023-11-26T20:16:14.358Z,99739.19
2023-11-26T20:18:43.364Z,99732.22
2023-11-26T20:21:10.568Z,99737.06
2023-11-26T20:23:41.401Z,99730.47
2023-11-26T20:26:08.848Z,99731.22
2023-11-26T20:28:36.420Z,99725.97
2023-11-26T20:31:09.029Z,99724.50
2023-11-26T20:33:39.170Z,99718.13
2023-11-26T20:36:19.005Z,99726.16
2023-11-26T20:38:46.436Z,99714.31
2023-11-26T20:41:15.256Z,99711.09
2023-11-26T20:43:42.154Z,99714.59
2023-11-26T20:46:20.728Z,99714.97
2023-11-26T20:48:49.650Z,99711.72
2023-11-26T20:51:21.609Z,99704.53
2023-11-26T20:53:48.819Z,99711.09
2023-11-26T20:56:22.895Z,99704.78
2023-11-26T20:58:50.194Z,99700.41
2023-11-26T21:01:17.954Z,99699.84
2023-11-26T21:03:45.018Z,99698.84
2023-11-26T21:06:12.669Z,99694.88
2023-11-26T21:08:41.389Z,99701.25
2023-11-26T21:11:10.840Z,99694.88
2023-11-26T21:13:39.141Z,99690.53
2023-11-26T21:16:11.501Z,99681.81
2023-11-26T21:18:38.798Z,99680.16
2023-11-26T21:21:05.870Z,99689.25
2023-11-26T21:23:32.822Z,99686.66
2023-11-26T21:26:02.563Z,99679.81
2023-11-26T21:28:30.273Z,99675.56
2023-11-26T21:30:57.333Z,99673.16
2023-11-26T21:33:27.261Z,99675.66
2023-11-26T21:35:55.076Z,99674.19
2023-11-26T21:38:22.961Z,99679.28
2023-11-26T21:41:01.142Z,99669.44
2023-11-26T21:43:33.510Z,99667.50
2023-11-26T21:46:00.494Z,99664.34
2023-11-26T21:48:27.657Z,99656.13
2023-11-26T21:50:54.537Z,99654.94
2023-11-26T21:53:21.477Z,99649.38
2023-11-26T21:55:49.250Z,99658.81
2023-11-26T21:58:16.200Z,99642.50
2023-11-26T22:00:45.933Z,99643.81
2023-11-26T22:03:13.164Z,99639.09
2023-11-26T22:05:40.672Z,99632.72
2023-11-26T22:08:08.275Z,99637.94
2023-11-26T22:10:35.223Z,99623.31
2023-11-26T22:13:02.473Z,99621.56
2023-11-26T22:15:31.030Z,99622.75
2023-11-26T22:17:59.372Z,99622.56
2023-11-26T22:20:26.876Z,99619.69
2023-11-26T22:22:54.020Z,99627.66
2023-11-26T22:25:21.046Z,99617.44
2023-11-26T22:27:48.200Z,99613.78
2023-11-26T22:30:17.141Z,99614.09
2023-11-26T22:32:45.465Z,99609.16
2023-11-26T22:35:14.194Z,99612.03
2023-11-26T22:37:48.509Z,99613.13
2023-11-26T22:40:16.536Z,99596.81
2023-11-26T22:42:43.834Z,99603.56
2023-11-26T22:45:11.096Z,99604.28
2023-11-26T22:47:38.996Z,99602.91
2023-11-26T22:50:08.350Z,99603.34
2023-11-26T22:52:36.646Z,99603.38
2023-11-26T22:55:04.854Z,99598.66
2023-11-26T22:57:31.964Z,99602.91
2023-11-26T22:59:59.348Z,99608.63
2023-11-26T23:02:26.383Z,99597.72
2023-11-26T23:04:55.303Z,99595.16
2023-11-26T23:07:22.496Z,99603.44
2023-11-26T23:09:51.813Z,99606.06
2023-11-26T23:12:19.001Z,99597.19
2023-11-26T23:14:45.931Z,99601.50
2023-11-26T23:17:15.992Z,99598.72
2023-11-26T23:19:43.103Z,99600.56
2023-11-26T23:22:10.011Z,99600.53
2023-11-26T23:24:37.249Z,99595.63
2023-11-26T23:27:05.651Z,99587.81
2023-11-26T23:29:33.109Z,99589.38
2023-11-26T23:32:00.017Z,99577.19
2023-11-26T23:34:27.774Z,99578.19
2023-11-26T23:36:54.812Z,99563.22
2023-11-26T23:39:22.462Z,99559.72
2023-11-26T23:41:49.583Z,99564.59
2023-11-26T23:44:18.088Z,99560.88
2023-11-26T23:46:45.413Z,99565.16
2023-11-26T23:49:13.830Z,99562.22
2023-11-26T23:51:41.009Z,99566.25
2023-11-26T23:54:08.048Z,99552.41
2023-11-26T23:56:34.924Z,99553.09
2023-11-26T23:59:03.634Z,99548.94
